createdAt,value
2022-09-06T00:00:44.024Z,44.29
2022-09-06T00:01:44.020Z,44.32
2022-09-06T00:02:44.152Z,44.32
2022-09-06T00:03:44.047Z,44.32
2022-09-06T00:04:44.021Z,44.29
2022-09-06T00:05:43.955Z,44.32
2022-09-06T00:06:43.949Z,44.32
2022-09-06T00:07:43.941Z,44.32
2022-09-06T00:08:43.918Z,44.32
2022-09-06T00:09:43.918Z,44.32
2022-09-06T00:10:43.913Z,44.32
2022-09-06T00:11:43.890Z,44.32
2022-09-06T00:12:43.885Z,44.32
2022-09-06T00:13:43.853Z,44.32
2022-09-06T00:14:43.845Z,44.42
2022-09-06T00:15:43.894Z,44.32
2022-09-06T00:16:43.833Z,44.42
2022-09-06T00:17:43.804Z,44.32
2022-09-06T00:18:43.800Z,44.42
2022-09-06T00:19:43.782Z,44.42
2022-09-06T00:20:43.771Z,44.32
2022-09-06T00:21:43.766Z,44.32
2022-09-06T00:22:43.757Z,44.42
2022-09-06T00:23:43.732Z,44.42
2022-09-06T00:24:43.740Z,44.42
2022-09-06T00:25:43.714Z,44.42
2022-09-06T00:26:43.696Z,44.42
2022-09-06T00:27:43.704Z,44.42
2022-09-06T00:28:43.689Z,44.42
2022-09-06T00:29:43.664Z,44.42
2022-09-06T00:30:43.703Z,44.42
2022-09-06T00:31:43.633Z,44.42
2022-09-06T00:32:43.621Z,44.42
2022-09-06T00:33:43.606Z,44.42
2022-09-06T00:34:43.615Z,44.42
2022-09-06T00:35:43.603Z,44.42
2022-09-06T00:36:43.577Z,44.42
2022-09-06T00:37:43.563Z,44.42
2022-09-06T00:38:43.556Z,44.42
2022-09-06T00:39:43.612Z,44.42
2022-09-06T00:40:43.541Z,44.42
2022-09-06T00:41:43.510Z,44.42
2022-09-06T00:42:43.506Z,44.42
2022-09-06T00:43:43.500Z,44.42
2022-09-06T00:44:43.476Z,44.42
2022-09-06T00:45:43.457Z,44.42
2022-09-06T00:46:43.505Z,44.42
2022-09-06T00:47:43.432Z,44.42
2022-09-06T00:48:43.438Z,44.32
2022-09-06T00:49:43.418Z,44.32
2022-09-06T00:50:43.403Z,44.32
2022-09-06T00:51:43.384Z,44.42
2022-09-06T00:52:43.389Z,44.29
2022-09-06T00:53:43.366Z,44.32
2022-09-06T00:54:43.353Z,44.32
2022-09-06T00:55:43.336Z,44.29
2022-09-06T00:56:43.326Z,44.32
2022-09-06T00:57:43.319Z,44.29
2022-09-06T00:58:43.345Z,44.32
2022-09-06T00:59:43.288Z,44.29
2022-09-06T01:00:43.278Z,44.32
2022-09-06T01:01:43.401Z,44.32
2022-09-06T01:02:43.342Z,44.32
2022-09-06T01:03:43.248Z,44.29
2022-09-06T01:04:43.242Z,44.29
2022-09-06T01:05:43.221Z,44.32
2022-09-06T01:06:43.197Z,44.29
2022-09-06T01:07:43.214Z,44.29
2022-09-06T01:08:43.175Z,44.32
2022-09-06T01:09:43.161Z,44.32
2022-09-06T01:10:43.170Z,44.32
2022-09-06T01:11:43.136Z,44.32
2022-09-06T01:12:43.123Z,44.42
2022-09-06T01:13:43.128Z,44.29
2022-09-06T01:14:43.110Z,44.32
2022-09-06T01:15:43.125Z,44.32
2022-09-06T01:16:43.092Z,44.32
2022-09-06T01:17:43.072Z,44.32
2022-09-06T01:18:43.078Z,44.32
2022-09-06T01:19:43.038Z,44.32
2022-09-06T01:20:43.024Z,44.32
2022-09-06T01:21:43.020Z,44.32
2022-09-06T01:22:43.018Z,44.32
2022-09-06T01:23:43.010Z,44.32
2022-09-06T01:24:42.974Z,44.32
2022-09-06T01:25:42.963Z,44.32
2022-09-06T01:26:42.956Z,44.32
2022-09-06T01:27:42.945Z,44.22
2022-09-06T01:28:42.938Z,44.32
2022-09-06T01:29:42.910Z,44.32
2022-09-06T01:30:43.017Z,44.22
2022-09-06T01:31:42.893Z,44.22
2022-09-06T01:32:42.879Z,44.29
2022-09-06T01:33:42.860Z,44.22
2022-09-06T01:34:42.864Z,44.22
2022-09-06T01:35:42.837Z,44.22
2022-09-06T01:37:06.355Z,44.22
2022-09-06T01:37:42.818Z,44.22
2022-09-06T01:38:42.820Z,44.22
2022-09-06T01:39:42.866Z,44.22
2022-09-06T01:40:42.788Z,44.22
2022-09-06T01:41:42.772Z,44.32
2022-09-06T01:42:42.780Z,44.32
2022-09-06T01:43:42.741Z,44.32
2022-09-06T01:44:42.740Z,44.32
2022-09-06T01:45:42.755Z,44.32
2022-09-06T01:46:42.716Z,44.32
2022-09-06T01:47:42.691Z,44.32
2022-09-06T01:48:42.684Z,44.32
2022-09-06T01:49:42.686Z,44.32
2022-09-06T01:50:42.682Z,44.32
2022-09-06T01:51:42.647Z,44.32
2022-09-06T01:52:42.648Z,44.32
2022-09-06T01:53:42.622Z,44.42
2022-09-06T01:54:42.622Z,44.42
2022-09-06T01:55:42.589Z,44.42
2022-09-06T01:56:42.599Z,44.42
2022-09-06T01:57:42.568Z,44.42
2022-09-06T01:58:42.560Z,44.42
2022-09-06T01:59:42.551Z,44.42
2022-09-06T02:00:42.531Z,44.42
2022-09-06T02:01:42.532Z,44.42
2022-09-06T02:02:42.608Z,44.51
2022-09-06T02:03:42.490Z,44.42
2022-09-06T02:04:42.489Z,44.42
2022-09-06T02:05:42.485Z,44.51
2022-09-06T02:06:42.452Z,44.51
2022-09-06T02:07:42.441Z,44.51
2022-09-06T02:08:42.426Z,44.51
2022-09-06T02:09:42.428Z,44.51
2022-09-06T02:10:42.415Z,44.51
2022-09-06T02:11:42.397Z,44.51
2022-09-06T02:12:42.394Z,44.51
2022-09-06T02:13:42.365Z,44.51
2022-09-06T02:14:42.352Z,44.51
2022-09-06T02:15:42.348Z,44.51
2022-09-06T02:16:42.390Z,44.51
2022-09-06T02:17:42.319Z,44.51
2022-09-06T02:18:42.302Z,44.51
2022-09-06T02:19:42.309Z,44.51
2022-09-06T02:20:42.285Z,44.61
2022-09-06T02:21:42.264Z,44.61
2022-09-06T02:22:42.260Z,44.61
2022-09-06T02:23:42.268Z,44.61
2022-09-06T02:24:42.228Z,44.61
2022-09-06T02:25:42.218Z,44.61
2022-09-06T02:26:42.243Z,44.61
2022-09-06T02:27:42.191Z,44.61
2022-09-06T02:28:42.187Z,44.71
2022-09-06T02:29:42.182Z,44.71
2022-09-06T02:30:42.205Z,44.71
2022-09-06T02:31:42.141Z,44.71
2022-09-06T02:32:42.149Z,44.71
2022-09-06T02:33:42.122Z,44.71
2022-09-06T02:34:42.111Z,44.71
2022-09-06T02:35:42.113Z,44.71
2022-09-06T02:36:42.076Z,44.61
2022-09-06T02:37:42.069Z,44.71
2022-09-06T02:38:42.057Z,44.71
2022-09-06T02:39:42.150Z,44.81
2022-09-06T02:40:42.043Z,44.81
2022-09-06T02:41:42.034Z,44.81
2022-09-06T02:42:42.007Z,44.81
2022-09-06T02:43:41.990Z,44.81
2022-09-06T02:44:41.989Z,44.81
2022-09-06T02:45:41.984Z,44.81
2022-09-06T02:46:41.965Z,44.81
2022-09-06T02:47:41.945Z,44.81
2022-09-06T02:48:41.944Z,44.81
2022-09-06T02:49:41.919Z,44.81
2022-09-06T02:50:41.917Z,44.81
2022-09-06T02:51:41.892Z,44.81
2022-09-06T02:52:41.889Z,44.81
2022-09-06T02:53:41.865Z,44.81
2022-09-06T02:54:41.870Z,44.81
2022-09-06T02:55:41.840Z,44.91
2022-09-06T02:56:41.832Z,44.91
2022-09-06T02:57:41.838Z,44.81
2022-09-06T02:58:41.815Z,44.91
2022-09-06T02:59:41.814Z,44.91
2022-09-06T03:00:41.784Z,44.91
2022-09-06T03:01:41.806Z,44.81
2022-09-06T03:02:41.805Z,44.81
2022-09-06T03:03:41.753Z,44.71
2022-09-06T03:04:41.740Z,44.71
2022-09-06T03:05:41.724Z,44.71
2022-09-06T03:06:41.705Z,44.81
2022-09-06T03:07:41.696Z,44.81
2022-09-06T03:08:41.693Z,44.81
2022-09-06T03:09:41.682Z,44.81
2022-09-06T03:10:41.675Z,44.81
2022-09-06T03:11:41.649Z,44.79
2022-09-06T03:12:41.636Z,44.81
2022-09-06T03:13:41.659Z,44.69
2022-09-06T03:14:41.632Z,44.71
2022-09-06T03:15:41.614Z,44.81
2022-09-06T03:16:41.639Z,44.81
2022-09-06T03:17:41.583Z,44.79
2022-09-06T03:18:41.557Z,44.79
2022-09-06T03:19:41.554Z,44.79
2022-09-06T03:20:41.538Z,44.81
2022-09-06T03:21:41.520Z,44.79
2022-09-06T03:22:41.529Z,44.81
2022-09-06T03:23:41.509Z,44.81
2022-09-06T03:24:41.486Z,44.69
2022-09-06T03:25:41.469Z,44.79
2022-09-06T03:26:41.486Z,44.79
2022-09-06T03:27:41.460Z,44.79
2022-09-06T03:28:41.454Z,44.81
2022-09-06T03:29:41.417Z,44.89
2022-09-06T03:30:41.462Z,44.79
2022-09-06T03:31:41.396Z,44.79
2022-09-06T03:32:41.385Z,44.81
2022-09-06T03:33:41.382Z,44.81
2022-09-06T03:34:41.365Z,44.81
2022-09-06T03:35:41.342Z,44.71
2022-09-06T03:36:41.330Z,44.79
2022-09-06T03:37:41.321Z,44.69
2022-09-06T03:38:41.307Z,44.79
2022-09-06T03:39:41.349Z,44.79
2022-09-06T03:40:41.308Z,44.69
2022-09-06T03:41:41.275Z,44.69
2022-09-06T03:42:41.255Z,44.69
2022-09-06T03:43:41.241Z,44.69
2022-09-06T03:44:41.243Z,44.79
2022-09-06T03:45:41.287Z,44.79
2022-09-06T03:46:41.226Z,44.81
2022-09-06T03:47:41.233Z,44.79
2022-09-06T03:48:41.203Z,44.79
2022-09-06T03:49:41.123Z,44.79
2022-09-06T03:50:41.114Z,44.98
2022-09-06T03:51:41.183Z,44.89
2022-09-06T03:52:41.139Z,45.01
2022-09-06T03:53:41.118Z,45.01
2022-09-06T03:54:41.105Z,45.01
2022-09-06T03:55:41.123Z,45.01
2022-09-06T03:56:41.086Z,45.01
2022-09-06T03:57:41.089Z,45.01
2022-09-06T03:58:41.080Z,45.01
2022-09-06T03:59:41.050Z,45.01
2022-09-06T04:00:41.029Z,45.01
2022-09-06T04:01:41.074Z,44.98
2022-09-06T04:02:41.062Z,44.98
2022-09-06T04:03:40.991Z,45.01
2022-09-06T04:04:41.005Z,44.98
2022-09-06T04:05:40.974Z,44.98
2022-09-06T04:06:40.956Z,44.98
2022-09-06T04:07:40.945Z,44.98
2022-09-06T04:08:40.936Z,45.01
2022-09-06T04:09:40.946Z,44.98
2022-09-06T04:10:40.924Z,44.98
2022-09-06T04:11:42.942Z,45.10
2022-09-06T04:12:40.881Z,45.20
2022-09-06T04:13:40.881Z,45.20
2022-09-06T04:14:40.870Z,45.18
2022-09-06T04:15:40.847Z,45.20
2022-09-06T04:16:40.951Z,45.20
2022-09-06T04:17:40.820Z,45.20
2022-09-06T04:18:40.806Z,45.30
2022-09-06T04:19:40.810Z,45.30
2022-09-06T04:20:40.782Z,45.30
2022-09-06T04:21:40.769Z,45.30
2022-09-06T04:22:40.793Z,45.30
2022-09-06T04:23:40.748Z,45.30
2022-09-06T04:24:40.735Z,45.30
2022-09-06T04:25:40.752Z,45.40
2022-09-06T04:26:40.710Z,45.40
2022-09-06T04:27:40.697Z,45.40
2022-09-06T04:28:40.707Z,45.30
2022-09-06T04:29:40.689Z,45.30
2022-09-06T04:30:40.663Z,45.40
2022-09-06T04:31:40.680Z,45.40
2022-09-06T04:32:40.653Z,45.40
2022-09-06T04:33:40.628Z,45.40
2022-09-06T04:34:40.618Z,45.40
2022-09-06T04:35:40.626Z,45.40
2022-09-06T04:36:40.587Z,45.40
2022-09-06T04:37:40.574Z,45.50
2022-09-06T04:38:40.569Z,45.50
2022-09-06T04:39:40.591Z,45.50
2022-09-06T04:40:40.550Z,45.50
2022-09-06T04:41:40.533Z,45.50
2022-09-06T04:42:40.521Z,45.60
2022-09-06T04:43:40.524Z,45.60
2022-09-06T04:44:40.432Z,45.60
2022-09-06T04:45:40.536Z,45.60
2022-09-06T04:46:40.496Z,45.60
2022-09-06T04:47:40.408Z,45.70
2022-09-06T04:48:40.397Z,45.70
2022-09-06T04:49:40.394Z,45.70
2022-09-06T04:50:40.359Z,45.70
2022-09-06T04:51:40.353Z,45.70
2022-09-06T04:52:40.376Z,45.70
2022-09-06T04:53:40.423Z,45.70
2022-09-06T04:54:40.323Z,45.79
2022-09-06T04:55:40.474Z,45.79
2022-09-06T04:56:40.291Z,45.79
2022-09-06T04:57:45.074Z,45.79
2022-09-06T04:58:40.276Z,45.79
2022-09-06T04:59:40.258Z,45.79
2022-09-06T05:00:40.263Z,45.79
2022-09-06T05:01:40.233Z,45.79
2022-09-06T05:02:40.296Z,45.79
2022-09-06T05:03:40.216Z,45.89
2022-09-06T05:04:40.199Z,45.89
2022-09-06T05:05:40.200Z,45.89
2022-09-06T05:06:40.168Z,45.89
2022-09-06T05:07:40.150Z,45.89
2022-09-06T05:08:40.136Z,45.89
2022-09-06T05:09:40.126Z,45.89
2022-09-06T05:10:40.159Z,45.89
2022-09-06T05:11:40.102Z,45.89
2022-09-06T05:12:44.120Z,45.89
2022-09-06T05:13:40.073Z,45.89
2022-09-06T05:14:40.061Z,45.89
2022-09-06T05:15:40.059Z,45.89
2022-09-06T05:16:40.168Z,45.89
2022-09-06T05:17:40.030Z,45.89
2022-09-06T05:18:40.031Z,45.89
2022-09-06T05:19:40.000Z,45.89
2022-09-06T05:20:39.993Z,45.89
2022-09-06T05:21:40.004Z,45.89
2022-09-06T05:22:39.980Z,45.89
2022-09-06T05:23:39.954Z,45.89
2022-09-06T05:24:39.942Z,45.89
2022-09-06T05:25:39.924Z,45.89
2022-09-06T05:26:39.919Z,45.89
2022-09-06T05:27:39.906Z,45.89
2022-09-06T05:28:39.904Z,45.89
2022-09-06T05:29:39.880Z,45.89
2022-09-06T05:30:39.874Z,45.89
2022-09-06T05:31:39.914Z,45.89
2022-09-06T05:32:39.845Z,45.89
2022-09-06T05:33:39.827Z,45.89
2022-09-06T05:34:39.844Z,45.89
2022-09-06T05:35:39.802Z,45.89
2022-09-06T05:36:39.794Z,45.89
2022-09-06T05:37:39.783Z,45.79
2022-09-06T05:38:39.770Z,45.79
2022-09-06T05:39:39.799Z,45.79
2022-09-06T05:40:39.751Z,45.79
2022-09-06T05:41:39.728Z,45.79
2022-09-06T05:42:39.718Z,45.79
2022-09-06T05:43:39.709Z,45.79
2022-09-06T05:44:39.692Z,45.79
2022-09-06T05:45:39.748Z,45.79
2022-09-06T05:46:39.698Z,45.79
2022-09-06T05:47:39.654Z,45.79
2022-09-06T05:48:39.642Z,45.79
2022-09-06T05:49:39.641Z,45.79
2022-09-06T05:50:39.622Z,45.79
2022-09-06T05:51:39.621Z,45.79
2022-09-06T05:52:39.623Z,45.79
2022-09-06T05:53:39.581Z,45.79
2022-09-06T05:54:39.573Z,45.79
2022-09-06T05:55:42.891Z,45.79
2022-09-06T05:56:39.542Z,45.79
2022-09-06T05:57:39.532Z,45.70
2022-09-06T05:58:39.537Z,45.70
2022-09-06T05:59:39.507Z,45.70
2022-09-06T06:00:39.495Z,45.70
2022-09-06T06:01:39.536Z,45.70
2022-09-06T06:02:39.550Z,45.70
2022-09-06T06:03:39.460Z,45.70
2022-09-06T06:04:39.465Z,45.70
2022-09-06T06:05:39.438Z,45.60
2022-09-06T06:06:39.418Z,45.60
2022-09-06T06:07:39.437Z,45.60
2022-09-06T06:08:39.396Z,45.60
2022-09-06T06:09:39.390Z,45.60
2022-09-06T06:10:39.399Z,45.60
2022-09-06T06:11:39.359Z,45.50
2022-09-06T06:12:39.349Z,45.50
2022-09-06T06:13:39.340Z,45.60
2022-09-06T06:14:39.334Z,45.60
2022-09-06T06:15:39.319Z,45.70
2022-09-06T06:16:39.341Z,45.60
2022-09-06T06:17:39.287Z,45.70
2022-09-06T06:18:39.277Z,45.60
2022-09-06T06:19:39.267Z,45.70
2022-09-06T06:20:39.252Z,45.70
2022-09-06T06:21:39.240Z,45.79
2022-09-06T06:22:39.233Z,46.00
2022-09-06T06:23:39.253Z,46.00
2022-09-06T06:24:39.199Z,45.97
2022-09-06T06:25:39.345Z,46.00
2022-09-06T06:26:39.176Z,46.00
2022-09-06T06:27:39.164Z,46.09
2022-09-06T06:28:39.160Z,46.07
2022-09-06T06:29:39.157Z,46.07
2022-09-06T06:30:39.129Z,46.07
2022-09-06T06:31:39.204Z,46.07
2022-09-06T06:32:39.098Z,46.07
2022-09-06T06:33:39.678Z,46.07
2022-09-06T06:34:39.089Z,46.07
2022-09-06T06:35:40.233Z,46.07
2022-09-06T06:36:39.060Z,46.07
2022-09-06T06:37:39.043Z,46.17
2022-09-06T06:38:39.027Z,46.26
2022-09-06T06:39:39.064Z,46.26
2022-09-06T06:40:39.027Z,46.26
2022-09-06T06:41:38.989Z,46.26
2022-09-06T06:42:38.990Z,46.26
2022-09-06T06:43:38.972Z,46.26
2022-09-06T06:44:38.959Z,46.26
2022-09-06T06:45:38.981Z,46.26
2022-09-06T06:46:38.935Z,46.26
2022-09-06T06:47:38.922Z,46.26
2022-09-06T06:48:38.910Z,46.37
2022-09-06T06:49:38.895Z,46.47
2022-09-06T06:50:38.885Z,46.37
2022-09-06T06:51:38.869Z,46.37
2022-09-06T06:52:38.865Z,46.37
2022-09-06T06:53:38.851Z,46.76
2022-09-06T06:54:38.837Z,46.47
2022-09-06T06:55:38.834Z,46.47
2022-09-06T06:56:38.812Z,46.37
2022-09-06T06:57:38.801Z,46.37
2022-09-06T06:58:38.795Z,46.47
2022-09-06T06:59:38.780Z,46.37
2022-09-06T07:00:38.832Z,46.37
2022-09-06T07:01:38.851Z,46.37
2022-09-06T07:02:38.740Z,46.37
2022-09-06T07:03:38.752Z,46.37
2022-09-06T07:04:38.718Z,46.26
2022-09-06T07:07:40.991Z,46.26
2022-09-06T07:08:38.667Z,46.37
2022-09-06T07:10:38.658Z,46.47
2022-09-06T07:11:38.652Z,46.47
2022-09-06T07:12:38.622Z,46.47
2022-09-06T07:13:38.594Z,46.47
2022-09-06T07:14:38.587Z,46.47
2022-09-06T07:15:38.589Z,46.47
2022-09-06T07:16:38.644Z,46.37
2022-09-06T07:17:38.554Z,46.37
2022-09-06T07:18:38.534Z,46.37
2022-09-06T07:21:38.845Z,46.37
2022-09-06T07:22:38.502Z,46.37
2022-09-06T07:24:38.465Z,46.37
2022-09-06T07:25:38.462Z,46.47
2022-09-06T07:26:38.996Z,46.47
2022-09-06T07:28:38.420Z,46.47
2022-09-06T07:29:38.399Z,46.37
2022-09-06T07:30:38.398Z,46.37
2022-09-06T07:32:38.363Z,46.47
2022-09-06T07:33:38.351Z,46.37
2022-09-06T07:34:38.342Z,46.37
2022-09-06T07:35:38.335Z,46.37
2022-09-06T07:36:38.314Z,46.37
2022-09-06T07:37:38.298Z,46.37
2022-09-06T07:38:38.295Z,46.37
2022-09-06T07:39:38.341Z,46.37
2022-09-06T07:40:38.288Z,46.37
2022-09-06T07:41:38.245Z,46.26
2022-09-06T07:42:38.231Z,46.26
2022-09-06T07:43:38.221Z,46.37
2022-09-06T07:44:38.208Z,46.26
2022-09-06T07:45:38.213Z,46.26
2022-09-06T07:46:38.271Z,46.26
2022-09-06T07:48:38.165Z,46.17
2022-09-06T07:49:38.160Z,46.17
2022-09-06T07:51:38.132Z,46.17
2022-09-06T07:53:38.443Z,46.17
2022-09-06T07:54:38.104Z,46.17
2022-09-06T07:55:38.072Z,46.07
2022-09-06T07:56:38.070Z,46.07
2022-09-06T07:57:38.089Z,45.97
2022-09-06T07:58:38.050Z,46.07
2022-09-06T07:59:41.194Z,46.17
2022-09-06T08:00:38.070Z,46.17
2022-09-06T08:01:38.020Z,46.19
2022-09-06T08:02:37.989Z,46.19
2022-09-06T08:03:37.978Z,46.19
2022-09-06T08:04:37.984Z,46.19
2022-09-06T08:09:37.914Z,46.07
2022-09-06T08:10:37.904Z,46.07
2022-09-06T08:11:37.879Z,46.07
2022-09-06T08:12:37.883Z,45.97
2022-09-06T08:13:37.856Z,46.07
2022-09-06T08:14:37.846Z,46.07
2022-09-06T08:15:41.537Z,45.87
2022-09-06T08:16:37.873Z,45.87
2022-09-06T08:17:37.808Z,45.97
2022-09-06T08:18:37.812Z,45.97
2022-09-06T08:19:37.783Z,46.00
2022-09-06T08:20:37.773Z,45.97
2022-09-06T08:21:37.794Z,45.97
2022-09-06T08:22:37.747Z,45.97
2022-09-06T08:23:37.744Z,45.87
2022-09-06T08:24:37.714Z,45.87
2022-09-06T08:25:37.711Z,45.87
2022-09-06T08:26:37.716Z,45.87
2022-09-06T08:27:37.681Z,45.87
2022-09-06T08:28:37.689Z,45.78
2022-09-06T08:29:37.649Z,45.78
2022-09-06T08:30:37.642Z,45.78
2022-09-06T08:31:37.688Z,45.78
2022-09-06T08:32:37.620Z,45.67
2022-09-06T08:33:37.615Z,45.57
2022-09-06T08:34:37.609Z,45.48
2022-09-06T08:35:37.576Z,45.38
2022-09-06T08:36:37.577Z,45.28
2022-09-06T08:37:37.565Z,45.38
2022-09-06T08:38:37.545Z,45.30
2022-09-06T08:39:37.587Z,45.28
2022-09-06T08:40:37.525Z,45.30
2022-09-06T08:41:37.510Z,45.40
2022-09-06T08:42:37.498Z,45.38
2022-09-06T08:43:37.476Z,45.28
2022-09-06T08:45:37.477Z,45.28
2022-09-06T08:46:37.486Z,45.28
2022-09-06T08:47:37.440Z,45.08
2022-09-06T08:48:37.433Z,45.08
2022-09-06T08:49:37.407Z,45.08
2022-09-06T08:50:37.393Z,44.98
2022-09-06T08:51:38.634Z,45.08
2022-09-06T08:52:41.811Z,45.18
2022-09-06T08:53:37.406Z,45.08
2022-09-06T08:54:37.342Z,44.98
2022-09-06T08:55:37.375Z,44.79
2022-09-06T08:56:37.321Z,44.89
2022-09-06T08:57:40.291Z,44.89
2022-09-06T08:58:37.300Z,44.89
2022-09-06T09:00:13.145Z,44.98
2022-09-06T09:00:37.324Z,44.98
2022-09-06T09:01:37.265Z,45.08
2022-09-06T09:03:01.273Z,45.20
2022-09-06T09:03:37.234Z,45.28
2022-09-06T09:04:37.842Z,45.18
2022-09-06T09:05:37.207Z,45.28
2022-09-06T09:06:37.206Z,45.28
2022-09-06T09:07:37.218Z,45.18
2022-09-06T09:08:37.172Z,45.18
2022-09-06T09:09:37.171Z,45.18
2022-09-06T09:10:37.179Z,45.08
2022-09-06T09:11:37.130Z,45.08
2022-09-06T09:12:37.163Z,44.98
2022-09-06T09:13:37.107Z,45.08
2022-09-06T09:14:37.110Z,44.98
2022-09-06T09:15:40.197Z,44.98
2022-09-06T09:16:37.204Z,44.98
2022-09-06T09:17:37.058Z,44.98
2022-09-06T09:18:37.045Z,44.98
2022-09-06T09:19:37.035Z,44.98
2022-09-06T09:20:37.026Z,44.98
2022-09-06T09:21:37.013Z,44.98
2022-09-06T09:22:37.038Z,44.98
2022-09-06T09:23:36.979Z,44.89
2022-09-06T09:24:36.996Z,44.89
2022-09-06T09:25:36.963Z,44.89
2022-09-06T09:26:36.965Z,44.79
2022-09-06T09:27:36.967Z,44.79
2022-09-06T09:28:36.944Z,44.79
2022-09-06T09:30:48.332Z,44.69
2022-09-06T09:31:52.810Z,44.79
2022-09-06T09:32:48.564Z,44.69
2022-09-06T09:33:48.558Z,44.79
2022-09-06T09:35:18.801Z,44.69
2022-09-06T09:35:48.516Z,44.59
2022-09-06T09:37:50.603Z,44.59
2022-09-06T09:38:48.483Z,44.49
2022-09-06T09:39:48.605Z,44.49
2022-09-06T09:40:48.458Z,44.59
2022-09-06T09:41:48.444Z,44.49
2022-09-06T09:42:48.437Z,44.49
2022-09-06T09:43:48.458Z,44.49
2022-09-06T09:44:48.408Z,44.49
2022-09-06T09:45:48.417Z,44.49
2022-09-06T09:46:48.432Z,44.49
2022-09-06T09:47:48.392Z,44.49
2022-09-06T09:48:48.361Z,44.49
2022-09-06T09:49:48.346Z,44.39
2022-09-06T09:50:48.369Z,44.29
2022-09-06T09:51:48.368Z,44.39
2022-09-06T09:52:48.311Z,44.29
2022-09-06T09:53:48.297Z,44.29
2022-09-06T09:55:24.101Z,44.39
2022-09-06T09:55:48.285Z,44.29
2022-09-06T09:56:48.285Z,44.27
2022-09-06T09:57:48.271Z,44.27
2022-09-06T09:58:48.229Z,44.27
2022-09-06T09:59:48.226Z,44.39
2022-09-06T10:00:48.237Z,44.39
2022-09-06T10:01:48.192Z,44.37
2022-09-06T10:02:48.188Z,44.37
2022-09-06T10:05:27.885Z,44.27
2022-09-06T10:05:48.200Z,44.27
2022-09-06T10:07:48.170Z,44.18
2022-09-06T10:08:48.125Z,44.18
2022-09-06T10:09:48.120Z,44.18
2022-09-06T10:10:48.085Z,44.07
2022-09-06T10:11:48.070Z,44.07
2022-09-06T10:12:48.063Z,44.07
2022-09-06T10:13:48.048Z,44.07
2022-09-06T10:14:48.044Z,43.98
2022-09-06T10:15:48.078Z,43.98
2022-09-06T10:16:48.017Z,44.07
2022-09-06T10:17:48.014Z,43.98
2022-09-06T10:18:47.987Z,44.07
2022-09-06T10:19:47.971Z,44.07
2022-09-06T10:20:47.958Z,43.88
2022-09-06T10:21:47.969Z,43.78
2022-09-06T10:22:47.937Z,43.78
2022-09-06T10:24:47.926Z,43.78
2022-09-06T10:25:49.691Z,43.88
2022-09-06T10:26:47.890Z,43.88
2022-09-06T10:28:01.614Z,43.88
2022-09-06T10:28:47.881Z,43.88
2022-09-06T10:29:47.860Z,43.88
2022-09-06T10:30:47.893Z,43.88
2022-09-06T10:31:47.901Z,43.88
2022-09-06T10:32:47.810Z,43.86
2022-09-06T10:33:47.823Z,43.86
2022-09-06T10:34:47.795Z,43.86
2022-09-06T10:35:47.826Z,43.86
2022-09-06T10:36:47.773Z,43.86
2022-09-06T10:37:47.750Z,43.86
2022-09-06T10:38:47.742Z,43.86
2022-09-06T10:39:47.808Z,43.86
2022-09-06T10:40:47.738Z,43.76
2022-09-06T10:41:47.704Z,43.76
2022-09-06T10:42:47.697Z,43.76
2022-09-06T10:43:47.687Z,43.66
2022-09-06T10:44:47.671Z,43.86
2022-09-06T10:45:47.675Z,43.86
2022-09-06T10:46:47.679Z,43.76
2022-09-06T10:47:47.658Z,43.76
2022-09-06T10:48:47.622Z,43.86
2022-09-06T10:49:47.631Z,43.76
2022-09-06T10:50:47.591Z,43.96
2022-09-06T10:51:47.591Z,43.96
2022-09-06T10:52:47.570Z,43.86
2022-09-06T10:53:47.560Z,43.96
2022-09-06T10:54:47.582Z,43.76
2022-09-06T10:55:48.086Z,43.66
2022-09-06T10:56:47.527Z,43.66
2022-09-06T10:59:50.247Z,43.46
2022-09-06T11:00:47.522Z,43.56
2022-09-06T11:01:47.598Z,43.66
2022-09-06T11:02:48.277Z,43.56
2022-09-06T11:03:57.094Z,43.76
2022-09-06T11:05:47.410Z,43.76
2022-09-06T11:06:47.407Z,43.66
2022-09-06T11:08:47.900Z,43.46
2022-09-06T11:09:47.385Z,43.46
2022-09-06T11:10:47.348Z,43.37
2022-09-06T11:11:47.338Z,43.46
2022-09-06T11:12:47.330Z,43.56
2022-09-06T11:13:47.309Z,43.56
2022-09-06T11:14:47.291Z,43.56
2022-09-06T11:15:47.347Z,43.56
2022-09-06T11:16:47.280Z,43.66
2022-09-06T11:17:47.274Z,43.56
2022-09-06T11:18:47.255Z,43.56
2022-09-06T11:19:47.248Z,43.96
2022-09-06T11:20:47.219Z,43.76
2022-09-06T11:21:47.246Z,43.56
2022-09-06T11:22:47.224Z,43.56
2022-09-06T11:23:47.193Z,43.46
2022-09-06T11:24:47.170Z,43.56
2022-09-06T11:25:47.180Z,43.56
2022-09-06T11:26:47.151Z,43.56
2022-09-06T11:27:47.233Z,43.56
2022-09-06T11:28:47.123Z,43.56
2022-09-06T11:29:47.190Z,43.46
2022-09-06T11:30:47.158Z,43.46
2022-09-06T11:32:53.095Z,43.37
2022-09-06T11:33:47.054Z,43.46
2022-09-06T11:34:47.042Z,43.44
2022-09-06T11:35:47.035Z,43.56
2022-09-06T11:36:47.019Z,43.76
2022-09-06T11:37:47.013Z,43.66
2022-09-06T11:38:47.008Z,43.76
2022-09-06T11:40:46.986Z,43.64
2022-09-06T11:41:46.960Z,43.74
2022-09-06T11:42:46.952Z,43.74
2022-09-06T11:43:47.014Z,43.64
2022-09-06T11:44:46.940Z,43.64
2022-09-06T11:45:46.907Z,43.44
2022-09-06T11:46:46.930Z,43.34
2022-09-06T11:47:46.887Z,43.34
2022-09-06T11:48:46.884Z,43.44
2022-09-06T11:49:46.862Z,43.44
2022-09-06T11:50:46.900Z,43.44
2022-09-06T11:51:46.835Z,43.64
2022-09-06T11:52:46.820Z,43.64
2022-09-06T11:53:46.816Z,43.84
2022-09-06T11:54:46.815Z,43.64
2022-09-06T11:55:46.800Z,43.84
2022-09-06T11:56:46.795Z,43.84
2022-09-06T11:57:46.768Z,43.84
2022-09-06T11:58:46.755Z,43.54
2022-09-06T11:59:46.741Z,43.74
2022-09-06T12:00:46.721Z,43.44
2022-09-06T12:01:46.711Z,43.34
2022-09-06T12:02:46.810Z,43.24
2022-09-06T12:04:46.680Z,43.24
2022-09-06T12:05:46.673Z,43.64
2022-09-06T12:06:46.685Z,43.44
2022-09-06T12:07:46.630Z,43.24
2022-09-06T12:08:46.650Z,43.15
2022-09-06T12:09:46.608Z,43.34
2022-09-06T12:10:46.595Z,43.54
2022-09-06T12:11:46.582Z,43.34
2022-09-06T12:12:46.574Z,43.44
2022-09-06T12:13:46.553Z,43.64
2022-09-06T12:14:46.561Z,43.54
2022-09-06T12:15:46.582Z,43.44
2022-09-06T12:16:46.527Z,43.24
2022-09-06T12:17:46.503Z,43.54
2022-09-06T12:18:46.499Z,43.44
2022-09-06T12:19:46.482Z,43.44
2022-09-06T12:20:46.494Z,43.44
2022-09-06T12:21:46.505Z,43.24
2022-09-06T12:22:46.457Z,43.24
2022-09-06T12:23:48.128Z,43.44
2022-09-06T12:24:46.446Z,43.44
2022-09-06T12:25:46.406Z,43.44
2022-09-06T12:26:46.402Z,43.64
2022-09-06T12:27:46.385Z,43.84
2022-09-06T12:28:47.214Z,43.84
2022-09-06T12:29:46.421Z,43.54
2022-09-06T12:30:47.299Z,43.84
2022-09-06T12:31:46.427Z,43.64
2022-09-06T12:32:46.336Z,43.64
2022-09-06T12:33:46.371Z,43.54
2022-09-06T12:34:46.367Z,43.34
2022-09-06T12:36:03.429Z,43.44
2022-09-06T12:36:46.287Z,43.44
2022-09-06T12:37:46.260Z,43.34
2022-09-06T12:38:46.257Z,43.32
2022-09-06T12:39:46.258Z,43.34
2022-09-06T12:40:46.247Z,43.34
2022-09-06T12:41:46.211Z,43.32
2022-09-06T12:42:46.212Z,43.24
2022-09-06T12:43:46.183Z,43.24
2022-09-06T12:44:46.194Z,43.24
2022-09-06T12:45:46.162Z,43.24
2022-09-06T12:46:46.194Z,43.15
2022-09-06T12:47:46.163Z,43.15
2022-09-06T12:48:46.117Z,43.13
2022-09-06T12:49:46.150Z,43.15
2022-09-06T12:50:46.136Z,43.13
2022-09-06T12:51:46.086Z,43.15
2022-09-06T12:52:46.068Z,43.13
2022-09-06T12:53:46.075Z,43.13
2022-09-06T12:54:46.050Z,43.13
2022-09-06T12:55:46.042Z,43.15
2022-09-06T12:56:46.025Z,43.13
2022-09-06T12:57:46.012Z,43.03
2022-09-06T12:58:46.013Z,43.03
2022-09-06T12:59:45.984Z,43.03
2022-09-06T13:00:45.980Z,43.03
2022-09-06T13:01:46.041Z,42.93
2022-09-06T13:02:46.071Z,42.93
2022-09-06T13:03:45.935Z,43.03
2022-09-06T13:04:45.931Z,42.93
2022-09-06T13:05:45.906Z,42.93
2022-09-06T13:06:45.899Z,42.93
2022-09-06T13:07:45.876Z,42.83
2022-09-06T13:08:45.871Z,42.93
2022-09-06T13:09:45.856Z,42.83
2022-09-06T13:10:45.839Z,42.83
2022-09-06T13:11:45.841Z,42.83
2022-09-06T13:12:45.812Z,42.83
2022-09-06T13:13:45.799Z,42.93
2022-09-06T13:14:45.804Z,42.83
2022-09-06T13:15:45.847Z,42.83
2022-09-06T13:16:45.764Z,42.83
2022-09-06T13:17:45.757Z,42.83
2022-09-06T13:18:45.746Z,42.73
2022-09-06T13:19:45.727Z,42.83
2022-09-06T13:20:45.737Z,42.83